Time;durP1;ratioP1;P1;durP2;ratioP2;P2;SDS_P1;SDS_P2;PMS_P1;PMS_P2;Temp;Humidity;BMP_temperature;BMP_pressure;BME280_temperature;BME280_humidity;BME280_pressure;Samples;Min_cycle;Max_cycle;Signal;HPM_P1;HPM_P2
2022/08/08 00:02:03;;;;;;;;;;;26.10;62.50;;;;;;5052657;28;19935;-60
2022/08/08 00:05:01;;;;;;;;;;;26.10;62.70;;;;;;5050607;28;19944;-59
2022/08/08 00:07:42;;;;;;;;;;;26.10;62.70;;;;;;5050589;28;20350;-61
2022/08/08 00:10:14;;;;;;;;;;;26.10;62.30;;;;;;5047009;28;19929;-59
2022/08/08 00:12:41;;;;;;;;;;;26.10;62.20;;;;;;5049368;28;19935;-59
2022/08/08 00:15:17;;;;;;;;;;;26.10;62.30;;;;;;5058612;28;19928;-60
2022/08/08 00:17:53;;;;;;;;;;;26.00;62.10;;;;;;5048710;28;19929;-60
2022/08/08 00:20:39;;;;;;;;;;;26.00;62.10;;;;;;5057896;28;19939;-61
2022/08/08 00:23:10;;;;;;;;;;;26.00;62.10;;;;;;5046792;28;20396;-61
2022/08/08 00:25:47;;;;;;;;;;;26.00;62.70;;;;;;5053185;28;19929;-60
2022/08/08 00:28:20;;;;;;;;;;;26.00;62.70;;;;;;5048550;28;19951;-59
2022/08/08 00:31:09;;;;;;;;;;;26.00;63.40;;;;;;5048217;28;19931;-59
2022/08/08 00:35:09;;;;;;;;;;;26.10;63.50;;;;;;5042742;28;19929;-58
2022/08/08 00:36:57;;;;;;;;;;;26.10;63.80;;;;;;5021525;28;19929;-59
2022/08/08 00:39:43;;;;;;;;;;;26.10;64.10;;;;;;5024546;28;19928;-55
2022/08/08 00:42:33;;;;;;;;;;;26.10;64.30;;;;;;5052494;28;19948;-59
2022/08/08 00:45:26;;;;;;;;;;;26.10;64.40;;;;;;5055685;28;19936;-57
2022/08/08 00:48:10;;;;;;;;;;;26.10;64.70;;;;;;5047611;28;19936;-61
2022/08/08 00:51:27;;;;;;;;;;;26.10;64.90;;;;;;5049693;28;20384;-58
2022/08/08 00:54:37;;;;;;;;;;;26.10;65.00;;;;;;5078831;28;19925;-60
2022/08/08 00:57:21;;;;;;;;;;;26.10;65.30;;;;;;5021862;28;19929;-60
2022/08/08 01:00:13;;;;;;;;;;;26.10;65.40;;;;;;5046180;28;19944;-60
2022/08/08 01:03:08;;;;;;;;;;;26.10;65.50;;;;;;5049642;28;19932;-58
2022/08/08 01:06:16;;;;;;;;;;;26.10;65.70;;;;;;5042983;28;19932;-57
2022/08/08 01:09:13;;;;;;;;;;;26.10;65.80;;;;;;5043941;28;20388;-60
2022/08/08 01:12:06;;;;;;;;;;;26.10;66.00;;;;;;5042041;28;19929;-60
2022/08/08 01:14:42;;;;;;;;;;;26.10;66.20;;;;;;5021344;28;20324;-60
2022/08/08 01:17:45;;;;;;;;;;;26.10;66.30;;;;;;5048303;28;19936;-61
2022/08/08 01:20:29;;;;;;;;;;;26.00;66.30;;;;;;5055204;28;19925;-61
2022/08/08 01:23:13;;;;;;;;;;;26.00;66.50;;;;;;5053151;28;19929;-61
2022/08/08 01:26:01;;;;;;;;;;;26.00;66.60;;;;;;5044393;28;19939;-60
2022/08/08 01:28:58;;;;;;;;;;;26.00;66.70;;;;;;5044291;28;19939;-61
2022/08/08 01:31:30;;;;;;;;;;;26.00;66.90;;;;;;5030938;28;19940;-61
2022/08/08 01:34:17;;;;;;;;;;;26.10;67.10;;;;;;5028075;28;19929;-60
2022/08/08 01:36:50;;;;;;;;;;;26.10;67.30;;;;;;5026333;28;20420;-59
2022/08/08 01:39:28;;;;;;;;;;;26.10;67.30;;;;;;5027402;28;19929;-60
2022/08/08 01:42:17;;;;;;;;;;;26.10;67.40;;;;;;5043481;28;19932;-58
2022/08/08 01:45:05;;;;;;;;;;;26.10;68.10;;;;;;5038190;28;19940;-58
2022/08/08 01:47:46;;;;;;;;;;;26.00;67.60;;;;;;5041944;28;19929;-60
2022/08/08 01:50:48;;;;;;;;;;;26.10;67.80;;;;;;5032086;28;20204;-59
2022/08/08 01:53:20;;;;;;;;;;;26.10;67.90;;;;;;5034469;28;19925;-61
2022/08/08 01:56:23;;;;;;;;;;;26.10;68.10;;;;;;5032386;28;19928;-59
2022/08/08 01:59:16;;;;;;;;;;;26.10;68.30;;;;;;5020323;28;20293;-59
2022/08/08 02:01:47;;;;;;;;;;;26.10;68.30;;;;;;5023866;28;19932;-61
2022/08/08 02:04:36;;;;;;;;;;;26.10;68.40;;;;;;5034776;28;20452;-61
2022/08/08 02:07:09;;;;;;;;;;;26.10;68.50;;;;;;5050098;28;19925;-59
2022/08/08 02:09:48;;;;;;;;;;;26.10;68.60;;;;;;5034633;28;20395;-58
2022/08/08 02:12:47;;;;;;;;;;;26.10;68.70;;;;;;5051872;28;20412;-59
2022/08/08 02:15:18;;;;;;;;;;;26.10;68.70;;;;;;5056649;28;19925;-58
2022/08/08 02:18:03;;;;;;;;;;;26.10;68.90;;;;;;5048851;28;20510;-54
2022/08/08 02:20:38;;;;;;;;;;;26.10;69.50;;;;;;5035123;28;19928;-59
2022/08/08 02:23:34;;;;;;;;;;;26.10;69.50;;;;;;5040861;28;19936;-60
2022/08/08 02:26:02;;;;;;;;;;;26.10;69.80;;;;;;5044081;28;19936;-56
2022/08/08 02:28:31;;;;;;;;;;;26.10;69.70;;;;;;5019690;28;19932;-60
2022/08/08 02:31:19;;;;;;;;;;;26.10;69.80;;;;;;5042380;28;19929;-58
2022/08/08 02:34:16;;;;;;;;;;;26.10;69.80;;;;;;5036138;28;20408;-59
2022/08/08 02:37:18;;;;;;;;;;;26.10;69.90;;;;;;5021683;28;19929;-57
2022/08/08 02:40:21;;;;;;;;;;;26.10;69.90;;;;;;5050953;28;20204;-57
2022/08/08 02:43:07;;;;;;;;;;;26.10;70.10;;;;;;5034281;28;19935;-60
2022/08/08 02:45:55;;;;;;;;;;;26.10;70.10;;;;;;5050903;28;19928;-59
2022/08/08 02:48:30;;;;;;;;;;;26.10;70.30;;;;;;5048714;28;19936;-60
2022/08/08 02:51:16;;;;;;;;;;;26.10;70.40;;;;;;5042967;28;19935;-58
2022/08/08 02:54:16;;;;;;;;;;;26.10;70.50;;;;;;5061255;28;19928;-59
2022/08/08 02:56:54;;;;;;;;;;;26.10;70.60;;;;;;5053225;28;19932;-60
2022/08/08 02:59:41;;;;;;;;;;;26.10;70.40;;;;;;5052104;28;19928;-60
2022/08/08 03:02:51;;;;;;;;;;;26.10;70.40;;;;;;5044999;28;19925;-60
2022/08/08 03:05:39;;;;;;;;;;;26.10;70.50;;;;;;5043699;28;19928;-61
2022/08/08 03:08:31;;;;;;;;;;;26.00;70.40;;;;;;5048624;28;19929;-56
2022/08/08 03:11:18;;;;;;;;;;;26.10;70.60;;;;;;5063884;28;19924;-55
2022/08/08 03:14:22;;;;;;;;;;;26.10;70.90;;;;;;5053854;28;19936;-61
2022/08/08 03:17:16;;;;;;;;;;;26.10;71.40;;;;;;5051086;28;19928;-60
2022/08/08 03:20:04;;;;;;;;;;;26.00;71.20;;;;;;5036863;28;19936;-60
2022/08/08 03:22:42;;;;;;;;;;;26.00;71.20;;;;;;5051488;28;19936;-61
2022/08/08 03:25:10;;;;;;;;;;;26.10;71.30;;;;;;5038480;28;19936;-59
2022/08/08 03:27:56;;;;;;;;;;;26.00;71.30;;;;;;5029216;28;19928;-61
2022/08/08 03:30:26;;;;;;;;;;;26.00;71.30;;;;;;5031727;28;19940;-59
2022/08/08 03:36:02;;;;;;;;;;;26.00;71.30;;;;;;5050962;28;19951;-60
2022/08/08 03:38:30;;;;;;;;;;;26.10;71.50;;;;;;5048009;28;19949;-59
2022/08/08 03:41:18;;;;;;;;;;;26.10;71.70;;;;;;5029638;28;19925;-61
2022/08/08 03:44:06;;;;;;;;;;;26.10;72.00;;;;;;5045387;28;19929;-56
2022/08/08 03:46:49;;;;;;;;;;;26.10;72.30;;;;;;5017507;28;19935;-56
2022/08/08 03:49:22;;;;;;;;;;;26.10;72.80;;;;;;5049110;28;19940;-59
2022/08/08 03:52:09;;;;;;;;;;;26.10;73.00;;;;;;5050771;28;19924;-60
2022/08/08 03:54:42;;;;;;;;;;;26.10;72.90;;;;;;5040858;28;19928;-63
2022/08/08 03:57:30;;;;;;;;;;;26.10;73.00;;;;;;5052319;28;19935;-60
2022/08/08 04:00:18;;;;;;;;;;;26.10;72.90;;;;;;5044425;28;19944;-60
2022/08/08 04:03:01;;;;;;;;;;;26.10;72.90;;;;;;5020536;28;19952;-61
2022/08/08 04:05:32;;;;;;;;;;;26.00;72.70;;;;;;5026180;28;19925;-60
2022/08/08 04:08:14;;;;;;;;;;;26.10;72.90;;;;;;5037273;28;20023;-60
2022/08/08 04:11:00;;;;;;;;;;;26.10;73.00;;;;;;5044113;28;19932;-59
2022/08/08 04:13:37;;;;;;;;;;;26.10;73.10;;;;;;5045799;28;19936;-60
2022/08/08 04:16:25;;;;;;;;;;;26.10;73.10;;;;;;5035734;28;20380;-60
2022/08/08 04:19:09;;;;;;;;;;;26.10;73.20;;;;;;5030683;28;19936;-61
2022/08/08 04:21:50;;;;;;;;;;;26.00;73.20;;;;;;5041068;28;19929;-58
2022/08/08 04:24:17;;;;;;;;;;;26.00;73.20;;;;;;5034196;28;19943;-57
2022/08/08 04:26:56;;;;;;;;;;;26.00;73.20;;;;;;5056017;28;19929;-59
2022/08/08 04:29:27;;;;;;;;;;;26.00;73.30;;;;;;5057293;28;19928;-60
2022/08/08 04:32:07;;;;;;;;;;;26.00;73.30;;;;;;5049575;28;19929;-59
2022/08/08 04:34:37;;;;;;;;;;;26.00;73.50;;;;;;5043736;28;19928;-59
2022/08/08 04:37:26;;;;;;;;;;;26.00;73.60;;;;;;5056202;28;19929;-59
2022/08/08 04:40:02;;;;;;;;;;;26.00;73.60;;;;;;5040175;28;19924;-59
2022/08/08 04:42:44;;;;;;;;;;;26.00;73.70;;;;;;5032157;28;19936;-57
2022/08/08 04:45:26;;;;;;;;;;;26.00;73.70;;;;;;5049031;28;19928;-61
2022/08/08 04:47:58;;;;;;;;;;;26.00;73.70;;;;;;5035041;28;19936;-58
2022/08/08 04:50:30;;;;;;;;;;;26.00;73.70;;;;;;5032215;28;19929;-60
2022/08/08 04:53:07;;;;;;;;;;;26.00;73.70;;;;;;5031095;28;19929;-60
2022/08/08 04:55:56;;;;;;;;;;;26.00;73.90;;;;;;5036605;28;19928;-59
2022/08/08 04:58:29;;;;;;;;;;;26.00;73.90;;;;;;5025581;28;19944;-60
2022/08/08 05:00:57;;;;;;;;;;;26.00;73.70;;;;;;5018064;28;19928;-61
2022/08/08 05:03:24;;;;;;;;;;;26.00;73.60;;;;;;5034168;28;19933;-61
2022/08/08 05:06:13;;;;;;;;;;;26.00;73.60;;;;;;5047478;28;19943;-61
2022/08/08 05:08:51;;;;;;;;;;;26.00;73.60;;;;;;5050735;28;19933;-57
2022/08/08 05:11:22;;;;;;;;;;;25.80;67.50;;;;;;5041931;28;19933;-55
2022/08/08 05:13:58;;;;;;;;;;;25.50;66.20;;;;;;5036690;28;19929;-58
2022/08/08 05:16:30;;;;;;;;;;;25.20;66.10;;;;;;5027205;28;19929;-57
2022/08/08 05:19:19;;;;;;;;;;;24.80;65.90;;;;;;5035177;28;19936;-55
2022/08/08 05:22:07;;;;;;;;;;;24.70;66.10;;;;;;5035366;28;19936;-57
2022/08/08 05:24:37;;;;;;;;;;;24.60;66.20;;;;;;5048332;28;19952;-59
2022/08/08 05:27:05;;;;;;;;;;;24.70;66.70;;;;;;5021349;28;19925;-57
2022/08/08 05:29:35;;;;;;;;;;;24.70;65.90;;;;;;5025668;28;19924;-60
2022/08/08 05:32:06;;;;;;;;;;;24.80;66.50;;;;;;5011283;28;19929;-59
2022/08/08 05:34:35;;;;;;;;;;;25.00;67.30;;;;;;5028741;28;19929;-59
2022/08/08 05:37:04;;;;;;;;;;;25.10;67.70;;;;;;5021374;28;19925;-60
2022/08/08 05:39:49;;;;;;;;;;;25.30;67.70;;;;;;5040968;28;19929;-58
2022/08/08 05:42:40;;;;;;;;;;;25.40;67.40;;;;;;5045104;28;19924;-60
2022/08/08 05:45:13;;;;;;;;;;;25.40;67.20;;;;;;5025630;28;19928;-60
2022/08/08 05:48:00;;;;;;;;;;;25.50;66.90;;;;;;5034335;28;19948;-59
2022/08/08 05:50:35;;;;;;;;;;;25.50;65.70;;;;;;5027893;28;19939;-60
2022/08/08 05:53:06;;;;;;;;;;;25.40;65.00;;;;;;5036085;28;19931;-60
2022/08/08 05:55:57;;;;;;;;;;;25.40;65.20;;;;;;5031365;28;19929;-57
2022/08/08 05:58:39;;;;;;;;;;;25.30;65.80;;;;;;5049429;28;19931;-58
2022/08/08 06:01:26;;;;;;;;;;;25.30;64.70;;;;;;5025534;28;20343;-58
2022/08/08 06:04:13;;;;;;;;;;;25.20;64.70;;;;;;5043441;28;19940;-58
2022/08/08 06:06:53;;;;;;;;;;;25.20;65.40;;;;;;5026164;28;19928;-57
2022/08/08 06:09:31;;;;;;;;;;;25.20;64.80;;;;;;5050470;28;20494;-61
2022/08/08 06:12:19;;;;;;;;;;;25.20;64.40;;;;;;5042265;28;19932;-59
2022/08/08 06:15:01;;;;;;;;;;;25.20;64.20;;;;;;5025822;28;19955;-60
2022/08/08 06:17:39;;;;;;;;;;;25.20;64.70;;;;;;5049442;28;19928;-59
2022/08/08 06:20:26;;;;;;;;;;;25.20;65.50;;;;;;5050010;28;20291;-60
2022/08/08 06:22:54;;;;;;;;;;;25.20;65.70;;;;;;5057957;28;19928;-60
2022/08/08 06:25:27;;;;;;;;;;;25.30;65.40;;;;;;5027065;28;19929;-61
2022/08/08 06:28:19;;;;;;;;;;;25.30;65.70;;;;;;5055058;28;20422;-61
2022/08/08 06:30:58;;;;;;;;;;;25.30;65.50;;;;;;5037727;28;19935;-62
2022/08/08 06:33:29;;;;;;;;;;;25.30;65.20;;;;;;5047055;28;19929;-63
2022/08/08 06:36:35;;;;;;;;;;;25.30;65.80;;;;;;5025970;28;19929;-61
2022/08/08 06:39:19;;;;;;;;;;;25.30;66.10;;;;;;5041080;28;19933;-59
2022/08/08 06:41:59;;;;;;;;;;;25.30;66.00;;;;;;5036291;28;19936;-56
2022/08/08 06:44:39;;;;;;;;;;;25.50;65.90;;;;;;5029760;28;19932;-62
2022/08/08 06:47:09;;;;;;;;;;;26.60;63.90;;;;;;5028225;28;20411;-60
2022/08/08 06:49:37;;;;;;;;;;;27.00;63.20;;;;;;5044787;28;19932;-57
2022/08/08 06:52:25;;;;;;;;;;;26.90;62.90;;;;;;5051079;28;20582;-60
2022/08/08 06:54:57;;;;;;;;;;;26.60;63.30;;;;;;5007226;28;19936;-58
2022/08/08 06:57:25;;;;;;;;;;;26.20;64.00;;;;;;5049136;28;19936;-58
2022/08/08 07:00:10;;;;;;;;;;;26.00;64.30;;;;;;5028461;28;19933;-56
2022/08/08 07:02:41;;;;;;;;;;;25.80;64.60;;;;;;5051022;28;19935;-59
2022/08/08 07:05:15;;;;;;;;;;;25.70;65.10;;;;;;5049944;28;19928;-60
2022/08/08 07:07:47;;;;;;;;;;;25.70;65.10;;;;;;5047311;28;19932;-58
2022/08/08 07:10:18;;;;;;;;;;;25.70;65.20;;;;;;5031021;28;20392;-61
2022/08/08 07:12:50;;;;;;;;;;;25.70;65.30;;;;;;5046903;28;19948;-56
2022/08/08 07:15:36;;;;;;;;;;;25.70;66.30;;;;;;5032289;28;19955;-55
2022/08/08 07:18:36;;;;;;;;;;;25.70;66.20;;;;;;5030528;28;19936;-58
2022/08/08 07:21:12;;;;;;;;;;;25.70;65.70;;;;;;5047124;28;19928;-62
2022/08/08 07:23:59;;;;;;;;;;;25.70;66.30;;;;;;5035966;28;19929;-65
2022/08/08 07:26:40;;;;;;;;;;;25.70;67.00;;;;;;5021253;28;19932;-57
2022/08/08 07:29:09;;;;;;;;;;;25.80;67.50;;;;;;5048082;28;19929;-55
2022/08/08 07:31:47;;;;;;;;;;;25.80;67.10;;;;;;5044528;28;19925;-58
2022/08/08 07:34:16;;;;;;;;;;;25.80;66.90;;;;;;5044952;28;20404;-56
2022/08/08 07:37:01;;;;;;;;;;;25.80;66.90;;;;;;5044738;28;19935;-55
2022/08/08 07:39:42;;;;;;;;;;;25.80;67.00;;;;;;5042755;28;19924;-59
2022/08/08 07:42:23;;;;;;;;;;;25.80;67.00;;;;;;5021054;28;19928;-54
2022/08/08 07:45:02;;;;;;;;;;;25.80;67.00;;;;;;5061095;28;19928;-57
2022/08/08 07:47:32;;;;;;;;;;;25.80;67.00;;;;;;5052980;28;19956;-60
2022/08/08 07:50:09;;;;;;;;;;;25.90;67.00;;;;;;5048250;28;19924;-58
2022/08/08 07:52:40;;;;;;;;;;;25.90;67.10;;;;;;5030323;28;20401;-57
2022/08/08 07:55:12;;;;;;;;;;;25.90;67.00;;;;;;5058343;28;19929;-61
2022/08/08 07:57:46;;;;;;;;;;;25.90;67.10;;;;;;5039983;28;20433;-59
2022/08/08 08:00:17;;;;;;;;;;;25.90;67.20;;;;;;5044355;28;19929;-58
2022/08/08 08:03:02;;;;;;;;;;;25.90;67.20;;;;;;5042390;28;19929;-57
2022/08/08 08:05:31;;;;;;;;;;;25.90;67.40;;;;;;5029586;28;19929;-56
2022/08/08 08:08:25;;;;;;;;;;;26.00;67.50;;;;;;5025356;28;20395;-55
2022/08/08 08:10:56;;;;;;;;;;;26.00;67.60;;;;;;5041404;28;19929;-56
2022/08/08 08:13:30;;;;;;;;;;;26.00;67.70;;;;;;5038422;28;19937;-57
2022/08/08 08:16:23;;;;;;;;;;;26.00;67.80;;;;;;5053622;28;19932;-58
2022/08/08 08:18:59;;;;;;;;;;;26.00;67.90;;;;;;5042550;28;20316;-57
2022/08/08 08:21:39;;;;;;;;;;;26.00;68.00;;;;;;5031901;28;19928;-57
2022/08/08 08:24:31;;;;;;;;;;;26.00;68.00;;;;;;5060786;28;19928;-59
2022/08/08 08:27:16;;;;;;;;;;;26.00;68.00;;;;;;5057922;28;19931;-59
2022/08/08 08:29:56;;;;;;;;;;;26.00;68.10;;;;;;5029950;28;20322;-60
2022/08/08 08:32:27;;;;;;;;;;;26.00;68.20;;;;;;5032953;28;20366;-56
2022/08/08 08:35:08;;;;;;;;;;;26.00;68.30;;;;;;5049321;28;19929;-57
2022/08/08 08:37:37;;;;;;;;;;;26.00;68.40;;;;;;5035751;28;19929;-59
2022/08/08 08:40:26;;;;;;;;;;;26.00;68.50;;;;;;5030738;28;19936;-58
2022/08/08 08:42:55;;;;;;;;;;;26.10;68.60;;;;;;5060062;28;19935;-58
2022/08/08 08:45:23;;;;;;;;;;;26.10;68.60;;;;;;5063786;28;20312;-60
2022/08/08 08:47:57;;;;;;;;;;;26.10;68.70;;;;;;5058948;28;19932;-56
2022/08/08 08:50:33;;;;;;;;;;;26.10;68.70;;;;;;5036750;28;19925;-55
2022/08/08 08:53:07;;;;;;;;;;;26.10;68.80;;;;;;5038499;28;19925;-58
2022/08/08 08:56:02;;;;;;;;;;;26.10;68.80;;;;;;5048682;28;19936;-54
2022/08/08 08:58:38;;;;;;;;;;;26.10;68.90;;;;;;5030694;28;20128;-55
2022/08/08 09:01:08;;;;;;;;;;;26.10;68.90;;;;;;5033232;28;19935;-57
2022/08/08 09:03:43;;;;;;;;;;;26.10;69.00;;;;;;5038085;28;19936;-58
2022/08/08 09:06:24;;;;;;;;;;;26.20;69.10;;;;;;5044880;28;19967;-56
2022/08/08 09:09:00;;;;;;;;;;;26.10;69.10;;;;;;5047876;28;19935;-57
2022/08/08 09:11:31;;;;;;;;;;;26.10;69.20;;;;;;5038801;28;19932;-56
2022/08/08 09:14:00;;;;;;;;;;;26.10;69.30;;;;;;5047312;28;19925;-58
2022/08/08 09:16:29;;;;;;;;;;;26.10;69.30;;;;;;5052393;28;19925;-58
2022/08/08 09:19:00;;;;;;;;;;;26.10;69.30;;;;;;5040991;28;20012;-58
2022/08/08 09:21:27;;;;;;;;;;;26.10;69.40;;;;;;5031120;28;19933;-57
2022/08/08 09:24:15;;;;;;;;;;;26.10;69.40;;;;;;5038534;28;19931;-59
2022/08/08 09:27:02;;;;;;;;;;;26.10;69.50;;;;;;5032701;28;19951;-53
2022/08/08 09:29:31;;;;;;;;;;;26.10;69.50;;;;;;5049126;28;20432;-57
2022/08/08 09:32:04;;;;;;;;;;;26.10;69.50;;;;;;5028173;28;19929;-55
2022/08/08 09:34:48;;;;;;;;;;;26.20;69.60;;;;;;5023770;28;19925;-57
2022/08/08 09:37:22;;;;;;;;;;;26.10;69.60;;;;;;5042055;28;19932;-57
2022/08/08 09:40:16;;;;;;;;;;;26.20;69.80;;;;;;5057489;28;20300;-57
2022/08/08 09:42:47;;;;;;;;;;;26.20;69.80;;;;;;5054401;28;20177;-61
2022/08/08 09:45:26;;;;;;;;;;;26.20;69.90;;;;;;5048987;28;19925;-58
2022/08/08 09:48:15;;;;;;;;;;;26.10;69.80;;;;;;5061648;28;19936;-57
2022/08/08 09:50:53;;;;;;;;;;;26.10;70.40;;;;;;5059334;28;20328;-60
2022/08/08 09:53:25;;;;;;;;;;;26.10;69.90;;;;;;5046894;28;19928;-54
2022/08/08 09:56:13;;;;;;;;;;;26.20;70.00;;;;;;5048962;28;19928;-58
2022/08/08 09:59:04;;;;;;;;;;;26.20;70.10;;;;;;5057826;28;19928;-58
2022/08/08 10:01:52;;;;;;;;;;;26.20;70.10;;;;;;5057598;28;19932;-58
2022/08/08 10:04:25;;;;;;;;;;;26.20;70.10;;;;;;5061056;28;19929;-59
2022/08/08 10:07:11;;;;;;;;;;;26.20;70.20;;;;;;5058808;28;19928;-60
2022/08/08 10:09:42;;;;;;;;;;;26.20;70.20;;;;;;5049034;28;19936;-59
2022/08/08 10:12:31;;;;;;;;;;;26.20;70.20;;;;;;5067537;28;19987;-57
2022/08/08 10:15:18;;;;;;;;;;;26.10;70.20;;;;;;5053883;28;20190;-58
2022/08/08 10:17:47;;;;;;;;;;;26.20;70.30;;;;;;5066609;28;20236;-58
2022/08/08 10:20:38;;;;;;;;;;;26.20;70.30;;;;;;5049568;28;19933;-60
2022/08/08 10:23:22;;;;;;;;;;;26.20;70.40;;;;;;5051653;28;19932;-61
2022/08/08 10:26:21;;;;;;;;;;;26.20;70.40;;;;;;5046856;28;19936;-59
2022/08/08 10:29:04;;;;;;;;;;;26.20;70.50;;;;;;5057096;28;19932;-57
2022/08/08 10:34:21;;;;;;;;;;;26.20;70.60;;;;;;5055307;28;20403;-57
2022/08/08 10:36:49;;;;;;;;;;;26.20;70.60;;;;;;5059822;28;19928;-60
2022/08/08 10:39:18;;;;;;;;;;;26.20;70.60;;;;;;5069685;28;19928;-59
2022/08/08 10:42:03;;;;;;;;;;;26.20;70.60;;;;;;5059038;28;20387;-58
2022/08/08 10:44:41;;;;;;;;;;;26.20;70.60;;;;;;5049983;28;19935;-58
2022/08/08 10:47:14;;;;;;;;;;;26.10;70.70;;;;;;5068456;28;19925;-57
2022/08/08 10:49:50;;;;;;;;;;;26.20;70.70;;;;;;5048470;28;19936;-57
2022/08/08 10:52:32;;;;;;;;;;;26.20;70.80;;;;;;5051368;28;19940;-54
2022/08/08 10:55:01;;;;;;;;;;;26.20;70.70;;;;;;5056872;28;19925;-57
2022/08/08 10:57:51;;;;;;;;;;;26.20;70.80;;;;;;5034254;28;19929;-59
2022/08/08 11:00:20;;;;;;;;;;;26.20;70.80;;;;;;5044409;28;19940;-58
2022/08/08 11:02:49;;;;;;;;;;;26.20;70.80;;;;;;5061936;28;19925;-57
2022/08/08 11:05:16;;;;;;;;;;;26.30;70.90;;;;;;5054828;28;19929;-58
2022/08/08 11:07:50;;;;;;;;;;;26.20;70.80;;;;;;5056667;28;19937;-57
2022/08/08 11:10:37;;;;;;;;;;;26.30;70.90;;;;;;5047832;28;19929;-59
2022/08/08 11:13:07;;;;;;;;;;;26.20;70.80;;;;;;5066067;28;19935;-54
2022/08/08 11:15:54;;;;;;;;;;;26.30;70.90;;;;;;5047603;28;20312;-53
2022/08/08 11:18:29;;;;;;;;;;;26.20;70.80;;;;;;5068716;28;19939;-55
2022/08/08 11:20:59;;;;;;;;;;;26.30;71.00;;;;;;5060080;28;19935;-55
2022/08/08 11:23:35;;;;;;;;;;;26.30;71.00;;;;;;5058377;28;19933;-57
2022/08/08 11:26:04;;;;;;;;;;;26.20;70.90;;;;;;5051268;28;19924;-58
2022/08/08 11:28:34;;;;;;;;;;;26.20;70.90;;;;;;5069966;28;20420;-57
2022/08/08 11:31:07;;;;;;;;;;;26.20;70.90;;;;;;5049934;28;19936;-57
2022/08/08 11:33:36;;;;;;;;;;;26.30;71.10;;;;;;5042252;28;20396;-57
2022/08/08 11:36:23;;;;;;;;;;;26.30;71.10;;;;;;5061268;28;19924;-57
2022/08/08 11:38:55;;;;;;;;;;;26.30;71.10;;;;;;5061836;28;19928;-57
2022/08/08 11:41:26;;;;;;;;;;;26.30;71.10;;;;;;5057592;28;20387;-55
2022/08/08 11:44:00;;;;;;;;;;;26.30;71.10;;;;;;5017320;28;19925;-56
2022/08/08 11:46:29;;;;;;;;;;;26.20;71.00;;;;;;5063918;28;19939;-57
2022/08/08 11:49:03;;;;;;;;;;;26.30;71.10;;;;;;5061828;28;20400;-60
2022/08/08 11:51:32;;;;;;;;;;;26.30;71.10;;;;;;5055800;28;19929;-58
2022/08/08 11:54:07;;;;;;;;;;;26.20;71.00;;;;;;5060281;28;19929;-56
2022/08/08 11:56:54;;;;;;;;;;;26.30;71.00;;;;;;5044229;28;19928;-59
2022/08/08 11:59:33;;;;;;;;;;;26.30;71.00;;;;;;5042005;28;19925;-57
2022/08/08 12:02:21;;;;;;;;;;;26.30;71.00;;;;;;5062221;28;19932;-58
2022/08/08 12:05:08;;;;;;;;;;;26.30;71.10;;;;;;5048734;28;20395;-55
2022/08/08 12:07:50;;;;;;;;;;;26.30;71.10;;;;;;5062147;28;19928;-52
2022/08/08 12:10:23;;;;;;;;;;;26.20;71.00;;;;;;5041953;28;19940;-59
2022/08/08 12:12:59;;;;;;;;;;;26.30;71.10;;;;;;5051190;28;19936;-58
2022/08/08 12:15:28;;;;;;;;;;;26.30;71.10;;;;;;5043290;28;19936;-58
2022/08/08 12:17:55;;;;;;;;;;;26.30;71.10;;;;;;5049906;28;19936;-59
2022/08/08 12:20:23;;;;;;;;;;;26.30;71.10;;;;;;5028064;28;19925;-57
2022/08/08 12:22:51;;;;;;;;;;;26.30;71.10;;;;;;5040371;28;19924;-59
2022/08/08 12:25:24;;;;;;;;;;;26.30;71.10;;;;;;5027550;28;19940;-57
2022/08/08 12:28:13;;;;;;;;;;;26.30;71.10;;;;;;5044374;28;19948;-59
2022/08/08 12:30:43;;;;;;;;;;;26.30;71.10;;;;;;5026593;28;19936;-57
2022/08/08 12:33:17;;;;;;;;;;;26.30;71.10;;;;;;5029953;28;19933;-58
2022/08/08 12:35:45;;;;;;;;;;;26.30;71.10;;;;;;5041998;28;20395;-57
2022/08/08 12:38:19;;;;;;;;;;;26.30;71.10;;;;;;5042043;28;19929;-57
2022/08/08 12:40:57;;;;;;;;;;;26.30;71.20;;;;;;5028945;28;19932;-59
2022/08/08 12:43:44;;;;;;;;;;;26.30;71.10;;;;;;5038436;28;19936;-55
2022/08/08 12:46:26;;;;;;;;;;;26.40;71.80;;;;;;5030619;28;19933;-57
2022/08/08 12:49:01;;;;;;;;;;;26.40;71.20;;;;;;5031059;28;19929;-56
2022/08/08 12:51:49;;;;;;;;;;;26.40;71.20;;;;;;5031690;28;19936;-56
2022/08/08 12:54:35;;;;;;;;;;;26.40;71.20;;;;;;5044353;28;19933;-58
2022/08/08 12:57:12;;;;;;;;;;;26.40;71.20;;;;;;5022742;28;19951;-59
2022/08/08 12:59:50;;;;;;;;;;;26.50;71.20;;;;;;5035323;28;19936;-58
2022/08/08 13:02:33;;;;;;;;;;;26.50;71.20;;;;;;5034012;28;19925;-54
2022/08/08 13:05:03;;;;;;;;;;;26.50;71.20;;;;;;5030282;28;19930;-56
2022/08/08 13:07:41;;;;;;;;;;;26.50;71.20;;;;;;5033674;28;19936;-58
2022/08/08 13:10:34;;;;;;;;;;;26.50;71.10;;;;;;5058435;28;19955;-57
2022/08/08 13:13:25;;;;;;;;;;;26.50;71.10;;;;;;5055209;28;20462;-58
2022/08/08 13:15:54;;;;;;;;;;;26.50;71.10;;;;;;5055227;28;19925;-56
2022/08/08 13:18:23;;;;;;;;;;;26.60;71.10;;;;;;5062838;28;19935;-60
2022/08/08 13:20:54;;;;;;;;;;;26.60;71.10;;;;;;5038445;28;19924;-58
2022/08/08 13:23:23;;;;;;;;;;;26.60;71.10;;;;;;5057007;28;19936;-58
2022/08/08 13:26:10;;;;;;;;;;;26.70;71.10;;;;;;5059982;28;19936;-58
2022/08/08 13:28:41;;;;;;;;;;;26.70;71.60;;;;;;5039282;28;19928;-59
2022/08/08 13:31:15;;;;;;;;;;;26.70;71.00;;;;;;5054378;28;20011;-55
2022/08/08 13:33:45;;;;;;;;;;;26.80;71.00;;;;;;5059697;28;19928;-58
2022/08/08 13:36:16;;;;;;;;;;;26.90;71.00;;;;;;5047105;28;19929;-56
2022/08/08 13:38:51;;;;;;;;;;;26.90;71.00;;;;;;5059397;28;19928;-59
2022/08/08 13:41:19;;;;;;;;;;;26.90;70.90;;;;;;5055634;28;19928;-57
2022/08/08 13:43:48;;;;;;;;;;;26.90;70.80;;;;;;5062733;28;19924;-59
2022/08/08 13:46:17;;;;;;;;;;;27.00;70.90;;;;;;5054679;28;20419;-57
2022/08/08 13:48:55;;;;;;;;;;;27.00;70.80;;;;;;5055284;28;19936;-56
2022/08/08 13:52:00;;;;;;;;;;;27.00;70.80;;;;;;5052335;28;19929;-58
2022/08/08 13:54:30;;;;;;;;;;;27.10;70.80;;;;;;5034245;28;20426;-59
2022/08/08 13:57:02;;;;;;;;;;;27.10;70.70;;;;;;5047492;28;19933;-59
2022/08/08 13:59:36;;;;;;;;;;;27.10;70.70;;;;;;5058401;28;19935;-58
2022/08/08 14:02:17;;;;;;;;;;;27.20;70.70;;;;;;5048999;28;19924;-59
2022/08/08 14:04:50;;;;;;;;;;;27.20;70.60;;;;;;5044814;28;19952;-58
2022/08/08 14:07:23;;;;;;;;;;;27.30;70.70;;;;;;5051889;28;19940;-59
2022/08/08 14:09:59;;;;;;;;;;;27.20;70.50;;;;;;5057238;28;19929;-58
2022/08/08 14:12:38;;;;;;;;;;;27.30;70.60;;;;;;5043213;28;19947;-55
2022/08/08 14:15:10;;;;;;;;;;;27.40;70.60;;;;;;5055670;28;19928;-58
2022/08/08 14:17:39;;;;;;;;;;;27.40;70.60;;;;;;5056316;28;20311;-57
2022/08/08 14:20:33;;;;;;;;;;;27.40;70.50;;;;;;5073520;28;20050;-57
2022/08/08 14:23:21;;;;;;;;;;;27.40;70.50;;;;;;5069885;28;19925;-58
2022/08/08 14:26:18;;;;;;;;;;;27.50;70.50;;;;;;5052259;28;19955;-55
2022/08/08 14:28:51;;;;;;;;;;;27.50;70.50;;;;;;5056298;28;19924;-55
2022/08/08 14:31:18;;;;;;;;;;;27.50;70.40;;;;;;5050294;28;19935;-60
2022/08/08 14:33:51;;;;;;;;;;;27.50;70.40;;;;;;5071269;28;20272;-58
2022/08/08 14:36:33;;;;;;;;;;;27.50;71.00;;;;;;5056257;28;19933;-57
2022/08/08 14:39:01;;;;;;;;;;;27.60;70.40;;;;;;5064510;28;19928;-57
2022/08/08 14:41:41;;;;;;;;;;;27.60;70.50;;;;;;5048538;28;19939;-59
2022/08/08 14:44:26;;;;;;;;;;;27.70;70.50;;;;;;5060924;28;19928;-56
2022/08/08 14:46:59;;;;;;;;;;;27.70;70.50;;;;;;5061063;28;20442;-62
2022/08/08 14:49:33;;;;;;;;;;;27.70;70.40;;;;;;5053996;28;20308;-56
2022/08/08 14:52:20;;;;;;;;;;;27.70;70.40;;;;;;5056945;28;19932;-58
2022/08/08 14:54:48;;;;;;;;;;;27.70;70.30;;;;;;5054616;28;19928;-56
2022/08/08 14:57:16;;;;;;;;;;;27.80;70.40;;;;;;5050186;28;19951;-59
2022/08/08 14:59:43;;;;;;;;;;;27.80;70.90;;;;;;5056106;28;19928;-57
2022/08/08 15:02:22;;;;;;;;;;;27.80;70.30;;;;;;5055691;28;20008;-58
2022/08/08 15:05:00;;;;;;;;;;;27.90;70.30;;;;;;5052053;28;19935;-62
2022/08/08 15:07:38;;;;;;;;;;;27.90;70.30;;;;;;5036859;28;20315;-58
2022/08/08 15:10:10;;;;;;;;;;;27.90;70.30;;;;;;5051210;28;19929;-59
2022/08/08 15:12:39;;;;;;;;;;;28.00;70.30;;;;;;5060443;28;19932;-58
2022/08/08 15:15:07;;;;;;;;;;;28.00;70.20;;;;;;5048267;28;19929;-56
2022/08/08 15:17:36;;;;;;;;;;;28.00;70.20;;;;;;5057872;28;19951;-58
2022/08/08 15:20:03;;;;;;;;;;;28.10;70.80;;;;;;5054980;28;20405;-57
2022/08/08 15:22:34;;;;;;;;;;;28.10;70.20;;;;;;5050547;28;19939;-59
2022/08/08 15:25:04;;;;;;;;;;;28.10;70.20;;;;;;5057419;28;19928;-58
2022/08/08 15:27:44;;;;;;;;;;;28.10;70.20;;;;;;5064186;28;19936;-57
2022/08/08 15:30:31;;;;;;;;;;;28.10;70.20;;;;;;5057811;28;20415;-57
2022/08/08 15:32:58;;;;;;;;;;;28.20;70.20;;;;;;5064036;28;19937;-60